sensor_id;sensor_type;location;lat;lon;timestamp;temperature;humidity
12746;DHT22;6437;53.686;10.030;2022-07-29T00:00:57;15.10;99.90
12746;DHT22;6437;53.686;10.030;2022-07-29T00:03:59;15.00;99.90
12746;DHT22;6437;53.686;10.030;2022-07-29T00:07:02;15.00;99.90
12746;DHT22;6437;53.686;10.030;2022-07-29T00:10:04;15.00;99.90
12746;DHT22;6437;53.686;10.030;2022-07-29T00:13:05;15.00;99.90
12746;DHT22;6437;53.686;10.030;2022-07-29T00:16:07;15.00;99.90
12746;DHT22;6437;53.686;10.030;2022-07-29T00:19:09;14.90;99.90
12746;DHT22;6437;53.686;10.030;2022-07-29T00:22:12;14.90;99.90
12746;DHT22;6437;53.686;10.030;2022-07-29T00:25:13;14.90;99.90
12746;DHT22;6437;53.686;10.030;2022-07-29T00:28:15;14.80;99.90
12746;DHT22;6437;53.686;10.030;2022-07-29T00:31:16;14.80;99.90
12746;DHT22;6437;53.686;10.030;2022-07-29T00:34:18;14.70;99.90
12746;DHT22;6437;53.686;10.030;2022-07-29T00:37:40;14.70;99.90
12746;DHT22;6437;53.686;10.030;2022-07-29T00:40:42;14.70;99.90
12746;DHT22;6437;53.686;10.030;2022-07-29T00:43:44;14.70;99.90
12746;DHT22;6437;53.686;10.030;2022-07-29T00:46:46;14.70;99.90
12746;DHT22;6437;53.686;10.030;2022-07-29T00:49:48;14.70;99.90
12746;DHT22;6437;53.686;10.030;2022-07-29T00:52:51;14.70;99.90
12746;DHT22;6437;53.686;10.030;2022-07-29T00:55:53;14.70;99.90
12746;DHT22;6437;53.686;10.030;2022-07-29T00:58:55;14.70;99.90
12746;DHT22;6437;53.686;10.030;2022-07-29T01:01:57;14.70;99.90
12746;DHT22;6437;53.686;10.030;2022-07-29T01:04:59;14.70;99.90
12746;DHT22;6437;53.686;10.030;2022-07-29T01:08:02;14.70;99.90
12746;DHT22;6437;53.686;10.030;2022-07-29T01:11:04;14.70;99.90
12746;DHT22;6437;53.686;10.030;2022-07-29T01:14:06;14.60;99.90
12746;DHT22;6437;53.686;10.030;2022-07-29T01:17:10;14.60;99.90
12746;DHT22;6437;53.686;10.030;2022-07-29T01:20:14;14.60;99.90
12746;DHT22;6437;53.686;10.030;2022-07-29T01:23:28;14.60;99.90
12746;DHT22;6437;53.686;10.030;2022-07-29T01:26:41;14.50;99.90
12746;DHT22;6437;53.686;10.030;2022-07-29T01:29:46;14.50;99.90
12746;DHT22;6437;53.686;10.030;2022-07-29T01:32:48;14.50;99.90
12746;DHT22;6437;53.686;10.030;2022-07-29T01:35:51;14.50;99.90
12746;DHT22;6437;53.686;10.030;2022-07-29T01:38:54;14.50;99.90
12746;DHT22;6437;53.686;10.030;2022-07-29T01:41:56;14.40;99.90
12746;DHT22;6437;53.686;10.030;2022-07-29T01:45:00;14.40;99.90
12746;DHT22;6437;53.686;10.030;2022-07-29T01:48:05;14.40;99.90
12746;DHT22;6437;53.686;10.030;2022-07-29T01:51:09;14.40;99.90
12746;DHT22;6437;53.686;10.030;2022-07-29T01:54:14;14.40;99.90
12746;DHT22;6437;53.686;10.030;2022-07-29T01:57:18;14.30;99.90
12746;DHT22;6437;53.686;10.030;2022-07-29T02:00:22;14.30;99.90
12746;DHT22;6437;53.686;10.030;2022-07-29T02:03:24;14.30;99.90
12746;DHT22;6437;53.686;10.030;2022-07-29T02:06:27;14.30;99.90
12746;DHT22;6437;53.686;10.030;2022-07-29T02:09:30;14.30;99.90
12746;DHT22;6437;53.686;10.030;2022-07-29T02:12:32;14.20;99.90
12746;DHT22;6437;53.686;10.030;2022-07-29T02:15:37;14.20;99.90
12746;DHT22;6437;53.686;10.030;2022-07-29T02:18:39;14.20;99.90
12746;DHT22;6437;53.686;10.030;2022-07-29T02:21:42;14.20;99.90
12746;DHT22;6437;53.686;10.030;2022-07-29T02:24:44;14.20;99.90
12746;DHT22;6437;53.686;10.030;2022-07-29T02:27:47;14.20;99.90
12746;DHT22;6437;53.686;10.030;2022-07-29T02:30:52;14.10;99.90
12746;DHT22;6437;53.686;10.030;2022-07-29T02:33:54;14.10;99.90
12746;DHT22;6437;53.686;10.030;2022-07-29T02:36:57;14.10;99.90
12746;DHT22;6437;53.686;10.030;2022-07-29T02:39:59;14.10;99.90
12746;DHT22;6437;53.686;10.030;2022-07-29T02:43:01;14.10;99.90
12746;DHT22;6437;53.686;10.030;2022-07-29T02:46:06;14.10;99.90
12746;DHT22;6437;53.686;10.030;2022-07-29T02:49:10;14.10;99.90
12746;DHT22;6437;53.686;10.030;2022-07-29T02:52:16;14.10;99.90
12746;DHT22;6437;53.686;10.030;2022-07-29T02:55:22;14.10;99.90
12746;DHT22;6437;53.686;10.030;2022-07-29T02:58:27;14.10;99.90
12746;DHT22;6437;53.686;10.030;2022-07-29T03:01:31;14.10;99.90
12746;DHT22;6437;53.686;10.030;2022-07-29T03:04:34;14.10;99.90
12746;DHT22;6437;53.686;10.030;2022-07-29T03:07:36;14.10;99.90
12746;DHT22;6437;53.686;10.030;2022-07-29T03:10:39;14.10;99.90
12746;DHT22;6437;53.686;10.030;2022-07-29T03:13:40;14.10;99.90
12746;DHT22;6437;53.686;10.030;2022-07-29T03:16:44;14.10;99.90
12746;DHT22;6437;53.686;10.030;2022-07-29T03:19:46;14.10;99.90
12746;DHT22;6437;53.686;10.030;2022-07-29T03:22:47;14.20;99.90
12746;DHT22;6437;53.686;10.030;2022-07-29T03:25:50;14.20;99.90
12746;DHT22;6437;53.686;10.030;2022-07-29T03:28:51;14.10;99.90
12746;DHT22;6437;53.686;10.030;2022-07-29T03:31:54;14.10;99.90
12746;DHT22;6437;53.686;10.030;2022-07-29T03:34:56;14.10;99.90
12746;DHT22;6437;53.686;10.030;2022-07-29T03:37:58;14.10;99.90
12746;DHT22;6437;53.686;10.030;2022-07-29T03:41:00;14.10;99.90
12746;DHT22;6437;53.686;10.030;2022-07-29T03:44:03;14.10;99.90
12746;DHT22;6437;53.686;10.030;2022-07-29T03:47:06;14.10;99.90
12746;DHT22;6437;53.686;10.030;2022-07-29T03:50:10;14.10;99.90
12746;DHT22;6437;53.686;10.030;2022-07-29T03:53:13;14.10;99.90
12746;DHT22;6437;53.686;10.030;2022-07-29T03:56:15;14.10;99.90
12746;DHT22;6437;53.686;10.030;2022-07-29T03:59:18;14.10;99.90
12746;DHT22;6437;53.686;10.030;2022-07-29T04:02:22;14.00;99.90
12746;DHT22;6437;53.686;10.030;2022-07-29T04:05:24;14.10;99.90
12746;DHT22;6437;53.686;10.030;2022-07-29T04:08:26;14.10;99.90
12746;DHT22;6437;53.686;10.030;2022-07-29T04:11:27;14.10;99.90
12746;DHT22;6437;53.686;10.030;2022-07-29T04:14:29;14.10;99.90
12746;DHT22;6437;53.686;10.030;2022-07-29T04:17:32;14.20;99.90
12746;DHT22;6437;53.686;10.030;2022-07-29T04:20:34;14.20;99.90
12746;DHT22;6437;53.686;10.030;2022-07-29T04:23:35;14.20;99.90
12746;DHT22;6437;53.686;10.030;2022-07-29T04:26:37;14.20;99.90
12746;DHT22;6437;53.686;10.030;2022-07-29T04:29:38;14.20;99.90
12746;DHT22;6437;53.686;10.030;2022-07-29T04:32:41;14.20;99.90
12746;DHT22;6437;53.686;10.030;2022-07-29T04:35:43;14.20;99.90
12746;DHT22;6437;53.686;10.030;2022-07-29T04:38:45;14.20;99.90
12746;DHT22;6437;53.686;10.030;2022-07-29T04:41:46;14.20;99.90
12746;DHT22;6437;53.686;10.030;2022-07-29T04:44:49;14.30;99.90
12746;DHT22;6437;53.686;10.030;2022-07-29T04:47:52;14.30;99.90
12746;DHT22;6437;53.686;10.030;2022-07-29T04:50:54;14.30;99.90
12746;DHT22;6437;53.686;10.030;2022-07-29T04:53:55;14.30;99.90
12746;DHT22;6437;53.686;10.030;2022-07-29T04:56:57;14.30;99.90
12746;DHT22;6437;53.686;10.030;2022-07-29T04:59:58;14.30;99.90
12746;DHT22;6437;53.686;10.030;2022-07-29T05:03:02;14.40;99.90
12746;DHT22;6437;53.686;10.030;2022-07-29T05:06:03;14.40;99.90
12746;DHT22;6437;53.686;10.030;2022-07-29T05:09:05;14.40;99.90
12746;DHT22;6437;53.686;10.030;2022-07-29T05:12:07;14.40;99.90
12746;DHT22;6437;53.686;10.030;2022-07-29T05:15:09;14.40;99.90
12746;DHT22;6437;53.686;10.030;2022-07-29T05:18:12;14.40;99.90
12746;DHT22;6437;53.686;10.030;2022-07-29T05:21:14;14.50;99.90
12746;DHT22;6437;53.686;10.030;2022-07-29T05:24:15;14.50;99.90
12746;DHT22;6437;53.686;10.030;2022-07-29T05:27:17;14.50;99.90
12746;DHT22;6437;53.686;10.030;2022-07-29T05:30:19;14.50;99.90
12746;DHT22;6437;53.686;10.030;2022-07-29T05:33:22;14.50;99.90
12746;DHT22;6437;53.686;10.030;2022-07-29T05:36:23;14.50;99.90
12746;DHT22;6437;53.686;10.030;2022-07-29T05:39:25;14.50;99.90
12746;DHT22;6437;53.686;10.030;2022-07-29T05:42:27;14.50;99.90
12746;DHT22;6437;53.686;10.030;2022-07-29T05:45:29;14.60;99.90
12746;DHT22;6437;53.686;10.030;2022-07-29T05:48:32;14.60;99.90
12746;DHT22;6437;53.686;10.030;2022-07-29T05:51:34;14.60;99.90
12746;DHT22;6437;53.686;10.030;2022-07-29T05:54:36;14.70;99.90
12746;DHT22;6437;53.686;10.030;2022-07-29T05:57:37;14.70;99.90
12746;DHT22;6437;53.686;10.030;2022-07-29T06:00:39;14.80;99.90
12746;DHT22;6437;53.686;10.030;2022-07-29T06:03:42;14.80;99.90
12746;DHT22;6437;53.686;10.030;2022-07-29T06:06:44;14.80;99.90
12746;DHT22;6437;53.686;10.030;2022-07-29T06:09:45;14.90;99.90
12746;DHT22;6437;53.686;10.030;2022-07-29T06:12:47;14.90;99.90
12746;DHT22;6437;53.686;10.030;2022-07-29T06:15:49;15.00;99.90
12746;DHT22;6437;53.686;10.030;2022-07-29T06:18:52;15.10;99.90
12746;DHT22;6437;53.686;10.030;2022-07-29T06:21:53;15.20;99.90
12746;DHT22;6437;53.686;10.030;2022-07-29T06:24:55;15.30;99.90
12746;DHT22;6437;53.686;10.030;2022-07-29T06:27:57;15.30;99.90
12746;DHT22;6437;53.686;10.030;2022-07-29T06:30:59;15.50;99.90
12746;DHT22;6437;53.686;10.030;2022-07-29T06:34:02;15.50;99.90
12746;DHT22;6437;53.686;10.030;2022-07-29T06:37:05;15.60;99.90
12746;DHT22;6437;53.686;10.030;2022-07-29T06:40:07;15.70;99.90
12746;DHT22;6437;53.686;10.030;2022-07-29T06:43:27;15.80;99.90
12746;DHT22;6437;53.686;10.030;2022-07-29T06:46:31;15.90;99.90
12746;DHT22;6437;53.686;10.030;2022-07-29T06:49:34;15.90;99.90
12746;DHT22;6437;53.686;10.030;2022-07-29T06:52:36;16.00;99.90
12746;DHT22;6437;53.686;10.030;2022-07-29T06:55:38;16.10;99.90
12746;DHT22;6437;53.686;10.030;2022-07-29T06:58:39;16.10;99.90
12746;DHT22;6437;53.686;10.030;2022-07-29T07:01:41;16.20;99.90
12746;DHT22;6437;53.686;10.030;2022-07-29T07:04:45;16.30;99.90
12746;DHT22;6437;53.686;10.030;2022-07-29T07:07:46;16.40;99.90
12746;DHT22;6437;53.686;10.030;2022-07-29T07:10:48;16.40;99.90
12746;DHT22;6437;53.686;10.030;2022-07-29T07:13:50;16.50;99.90
12746;DHT22;6437;53.686;10.030;2022-07-29T07:16:51;16.60;99.90
12746;DHT22;6437;53.686;10.030;2022-07-29T07:19:54;16.60;99.90
12746;DHT22;6437;53.686;10.030;2022-07-29T07:22:56;16.80;99.90
12746;DHT22;6437;53.686;10.030;2022-07-29T07:25:57;16.80;99.90
12746;DHT22;6437;53.686;10.030;2022-07-29T07:28:59;16.90;99.90
12746;DHT22;6437;53.686;10.030;2022-07-29T07:32:01;17.00;99.90
12746;DHT22;6437;53.686;10.030;2022-07-29T07:35:05;17.10;99.90
12746;DHT22;6437;53.686;10.030;2022-07-29T07:38:07;17.20;99.90
12746;DHT22;6437;53.686;10.030;2022-07-29T07:41:08;17.30;99.90
12746;DHT22;6437;53.686;10.030;2022-07-29T07:44:10;17.40;99.90
12746;DHT22;6437;53.686;10.030;2022-07-29T07:47:12;17.50;99.90
12746;DHT22;6437;53.686;10.030;2022-07-29T07:50:15;17.60;99.90
12746;DHT22;6437;53.686;10.030;2022-07-29T07:53:17;17.70;99.90
12746;DHT22;6437;53.686;10.030;2022-07-29T07:56:19;17.80;99.90
12746;DHT22;6437;53.686;10.030;2022-07-29T07:59:21;17.90;99.90
12746;DHT22;6437;53.686;10.030;2022-07-29T08:02:22;17.90;99.90
12746;DHT22;6437;53.686;10.030;2022-07-29T08:05:25;18.00;99.90
12746;DHT22;6437;53.686;10.030;2022-07-29T08:08:27;18.10;99.90
12746;DHT22;6437;53.686;10.030;2022-07-29T08:11:29;18.10;99.90
12746;DHT22;6437;53.686;10.030;2022-07-29T08:14:31;18.20;99.90
12746;DHT22;6437;53.686;10.030;2022-07-29T08:17:33;18.20;99.90
12746;DHT22;6437;53.686;10.030;2022-07-29T08:20:36;18.30;99.90
12746;DHT22;6437;53.686;10.030;2022-07-29T08:23:39;18.30;99.90
12746;DHT22;6437;53.686;10.030;2022-07-29T08:26:46;18.40;99.90
12746;DHT22;6437;53.686;10.030;2022-07-29T08:29:47;18.40;99.90
12746;DHT22;6437;53.686;10.030;2022-07-29T08:32:49;18.50;99.90
12746;DHT22;6437;53.686;10.030;2022-07-29T08:35:54;18.50;99.90
12746;DHT22;6437;53.686;10.030;2022-07-29T08:38:56;18.50;99.90
12746;DHT22;6437;53.686;10.030;2022-07-29T08:41:57;18.60;99.90
12746;DHT22;6437;53.686;10.030;2022-07-29T08:44:59;18.60;99.90
12746;DHT22;6437;53.686;10.030;2022-07-29T08:48:01;18.70;99.90
12746;DHT22;6437;53.686;10.030;2022-07-29T08:51:05;18.80;99.90
12746;DHT22;6437;53.686;10.030;2022-07-29T08:54:09;18.90;99.90
12746;DHT22;6437;53.686;10.030;2022-07-29T08:57:12;19.00;99.90
12746;DHT22;6437;53.686;10.030;2022-07-29T09:00:15;19.00;99.90
12746;DHT22;6437;53.686;10.030;2022-07-29T09:03:17;19.10;99.90
12746;DHT22;6437;53.686;10.030;2022-07-29T09:06:24;19.20;99.90
12746;DHT22;6437;53.686;10.030;2022-07-29T09:09:36;19.20;99.90
12746;DHT22;6437;53.686;10.030;2022-07-29T09:12:40;19.30;99.90
12746;DHT22;6437;53.686;10.030;2022-07-29T09:15:41;19.40;99.90
12746;DHT22;6437;53.686;10.030;2022-07-29T09:18:44;19.50;99.90
12746;DHT22;6437;53.686;10.030;2022-07-29T09:21:47;19.60;99.90
12746;DHT22;6437;53.686;10.030;2022-07-29T09:25:01;19.70;99.90
12746;DHT22;6437;53.686;10.030;2022-07-29T09:28:06;19.80;99.90
12746;DHT22;6437;53.686;10.030;2022-07-29T09:31:09;19.80;99.90
12746;DHT22;6437;53.686;10.030;2022-07-29T09:34:11;20.00;99.90
12746;DHT22;6437;53.686;10.030;2022-07-29T09:37:26;20.10;99.90
12746;DHT22;6437;53.686;10.030;2022-07-29T09:40:27;20.20;99.90
12746;DHT22;6437;53.686;10.030;2022-07-29T09:43:29;20.40;99.90
12746;DHT22;6437;53.686;10.030;2022-07-29T09:46:31;20.50;99.90
12746;DHT22;6437;53.686;10.030;2022-07-29T09:49:33;20.60;99.90
12746;DHT22;6437;53.686;10.030;2022-07-29T09:52:44;20.70;99.90
12746;DHT22;6437;53.686;10.030;2022-07-29T09:55:46;20.80;99.90
12746;DHT22;6437;53.686;10.030;2022-07-29T09:58:49;20.90;99.90
12746;DHT22;6437;53.686;10.030;2022-07-29T10:02:10;20.90;99.90
12746;DHT22;6437;53.686;10.030;2022-07-29T10:05:16;20.90;99.90
12746;DHT22;6437;53.686;10.030;2022-07-29T10:08:25;21.00;99.90
12746;DHT22;6437;53.686;10.030;2022-07-29T10:11:27;21.00;99.90
12746;DHT22;6437;53.686;10.030;2022-07-29T10:14:29;21.10;99.90
12746;DHT22;6437;53.686;10.030;2022-07-29T10:17:31;21.10;99.90
12746;DHT22;6437;53.686;10.030;2022-07-29T10:20:33;21.30;99.90
12746;DHT22;6437;53.686;10.030;2022-07-29T10:23:36;21.40;99.90
12746;DHT22;6437;53.686;10.030;2022-07-29T10:26:38;21.50;99.90
12746;DHT22;6437;53.686;10.030;2022-07-29T10:29:41;21.50;99.90
12746;DHT22;6437;53.686;10.030;2022-07-29T10:32:54;21.50;99.90
12746;DHT22;6437;53.686;10.030;2022-07-29T10:36:05;21.50;99.90
12746;DHT22;6437;53.686;10.030;2022-07-29T10:39:13;21.60;99.90
12746;DHT22;6437;53.686;10.030;2022-07-29T10:42:19;21.60;99.90
12746;DHT22;6437;53.686;10.030;2022-07-29T10:45:22;21.60;99.90
12746;DHT22;6437;53.686;10.030;2022-07-29T10:48:24;21.60;99.90
12746;DHT22;6437;53.686;10.030;2022-07-29T10:51:26;21.60;99.90
12746;DHT22;6437;53.686;10.030;2022-07-29T10:54:49;21.60;99.90
12746;DHT22;6437;53.686;10.030;2022-07-29T11:01:27;21.70;99.90
12746;DHT22;6437;53.686;10.030;2022-07-29T11:18:06;21.60;99.90
12746;DHT22;6437;53.686;10.030;2022-07-29T11:21:09;21.60;99.90
12746;DHT22;6437;53.686;10.030;2022-07-29T11:24:31;21.60;99.90
12746;DHT22;6437;53.686;10.030;2022-07-29T11:27:34;21.60;99.90
12746;DHT22;6437;53.686;10.030;2022-07-29T11:30:47;21.60;99.90
12746;DHT22;6437;53.686;10.030;2022-07-29T11:33:50;21.60;99.90
12746;DHT22;6437;53.686;10.030;2022-07-29T11:40:15;21.60;99.90
12746;DHT22;6437;53.686;10.030;2022-07-29T11:43:30;21.70;99.90
12746;DHT22;6437;53.686;10.030;2022-07-29T11:46:47;21.80;99.90
12746;DHT22;6437;53.686;10.030;2022-07-29T11:49:51;21.80;99.90
12746;DHT22;6437;53.686;10.030;2022-07-29T11:52:53;21.90;99.90
12746;DHT22;6437;53.686;10.030;2022-07-29T11:55:55;22.00;99.90
12746;DHT22;6437;53.686;10.030;2022-07-29T11:59:01;22.10;99.90
12746;DHT22;6437;53.686;10.030;2022-07-29T12:02:03;22.30;99.90
12746;DHT22;6437;53.686;10.030;2022-07-29T12:05:07;22.40;99.90
12746;DHT22;6437;53.686;10.030;2022-07-29T12:08:10;22.40;99.90
12746;DHT22;6437;53.686;10.030;2022-07-29T12:11:15;22.50;99.90
12746;DHT22;6437;53.686;10.030;2022-07-29T12:14:26;22.70;99.90
12746;DHT22;6437;53.686;10.030;2022-07-29T12:17:28;22.80;99.90
12746;DHT22;6437;53.686;10.030;2022-07-29T12:20:31;22.90;99.00
12746;DHT22;6437;53.686;10.030;2022-07-29T12:23:34;22.90;97.20
12746;DHT22;6437;53.686;10.030;2022-07-29T12:26:36;23.00;98.80
12746;DHT22;6437;53.686;10.030;2022-07-29T12:29:38;23.00;99.20
12746;DHT22;6437;53.686;10.030;2022-07-29T12:32:40;22.90;99.10
12746;DHT22;6437;53.686;10.030;2022-07-29T12:35:44;23.00;98.20
12746;DHT22;6437;53.686;10.030;2022-07-29T12:38:46;23.00;98.80
12746;DHT22;6437;53.686;10.030;2022-07-29T12:41:47;23.00;98.00
12746;DHT22;6437;53.686;10.030;2022-07-29T12:44:49;23.00;99.10
12746;DHT22;6437;53.686;10.030;2022-07-29T12:47:51;23.10;99.90
12746;DHT22;6437;53.686;10.030;2022-07-29T12:50:56;23.30;99.90
12746;DHT22;6437;53.686;10.030;2022-07-29T12:54:05;23.40;99.90
12746;DHT22;6437;53.686;10.030;2022-07-29T12:57:07;23.50;99.90
12746;DHT22;6437;53.686;10.030;2022-07-29T13:00:09;23.70;99.90
12746;DHT22;6437;53.686;10.030;2022-07-29T13:03:11;23.90;99.90
12746;DHT22;6437;53.686;10.030;2022-07-29T13:06:34;24.00;99.90
12746;DHT22;6437;53.686;10.030;2022-07-29T13:09:36;24.10;99.90
12746;DHT22;6437;53.686;10.030;2022-07-29T13:12:38;24.20;99.90
12746;DHT22;6437;53.686;10.030;2022-07-29T13:15:42;24.20;99.90
12746;DHT22;6437;53.686;10.030;2022-07-29T13:18:44;24.20;99.90
12746;DHT22;6437;53.686;10.030;2022-07-29T13:21:47;24.10;99.90
12746;DHT22;6437;53.686;10.030;2022-07-29T13:24:49;24.10;99.90
12746;DHT22;6437;53.686;10.030;2022-07-29T13:27:51;24.00;99.90
12746;DHT22;6437;53.686;10.030;2022-07-29T13:30:54;23.90;99.90
12746;DHT22;6437;53.686;10.030;2022-07-29T13:33:56;23.90;99.90
12746;DHT22;6437;53.686;10.030;2022-07-29T13:36:59;23.80;99.90
12746;DHT22;6437;53.686;10.030;2022-07-29T13:40:00;23.70;99.90
12746;DHT22;6437;53.686;10.030;2022-07-29T13:43:03;23.70;99.90
12746;DHT22;6437;53.686;10.030;2022-07-29T13:46:04;23.60;99.90
12746;DHT22;6437;53.686;10.030;2022-07-29T13:49:06;23.60;99.90
12746;DHT22;6437;53.686;10.030;2022-07-29T13:52:09;23.70;99.90
12746;DHT22;6437;53.686;10.030;2022-07-29T13:55:11;23.90;99.90
12746;DHT22;6437;53.686;10.030;2022-07-29T13:58:12;24.30;99.90
12746;DHT22;6437;53.686;10.030;2022-07-29T14:01:14;24.50;99.80
12746;DHT22;6437;53.686;10.030;2022-07-29T14:04:16;24.50;99.60
12746;DHT22;6437;53.686;10.030;2022-07-29T14:07:19;24.40;99.50
12746;DHT22;6437;53.686;10.030;2022-07-29T14:10:20;24.30;99.90
12746;DHT22;6437;53.686;10.030;2022-07-29T14:13:22;24.30;99.60
12746;DHT22;6437;53.686;10.030;2022-07-29T14:16:23;24.20;99.50
12746;DHT22;6437;53.686;10.030;2022-07-29T14:19:25;24.10;99.90
12746;DHT22;6437;53.686;10.030;2022-07-29T14:22:28;24.00;99.90
12746;DHT22;6437;53.686;10.030;2022-07-29T14:25:30;23.90;99.90
12746;DHT22;6437;53.686;10.030;2022-07-29T14:28:32;23.90;99.90
12746;DHT22;6437;53.686;10.030;2022-07-29T14:31:33;23.90;99.90
12746;DHT22;6437;53.686;10.030;2022-07-29T14:34:46;23.90;99.90
12746;DHT22;6437;53.686;10.030;2022-07-29T14:37:53;24.10;99.90
12746;DHT22;6437;53.686;10.030;2022-07-29T14:41:03;24.10;99.90
12746;DHT22;6437;53.686;10.030;2022-07-29T14:44:09;24.10;99.90
12746;DHT22;6437;53.686;10.030;2022-07-29T14:47:16;24.10;99.90
12746;DHT22;6437;53.686;10.030;2022-07-29T14:50:21;24.10;99.90
12746;DHT22;6437;53.686;10.030;2022-07-29T14:53:27;24.10;99.90
12746;DHT22;6437;53.686;10.030;2022-07-29T14:56:35;24.10;99.90
12746;DHT22;6437;53.686;10.030;2022-07-29T14:59:51;24.00;99.90
12746;DHT22;6437;53.686;10.030;2022-07-29T15:02:55;23.90;99.90
12746;DHT22;6437;53.686;10.030;2022-07-29T15:05:57;23.90;99.90
12746;DHT22;6437;53.686;10.030;2022-07-29T15:09:00;23.80;99.90
12746;DHT22;6437;53.686;10.030;2022-07-29T15:12:01;23.80;99.90
12746;DHT22;6437;53.686;10.030;2022-07-29T15:15:04;23.80;99.90
12746;DHT22;6437;53.686;10.030;2022-07-29T15:18:07;23.80;99.90
12746;DHT22;6437;53.686;10.030;2022-07-29T15:21:09;23.80;99.90
12746;DHT22;6437;53.686;10.030;2022-07-29T15:24:12;23.90;99.90
12746;DHT22;6437;53.686;10.030;2022-07-29T15:27:14;23.90;99.90
12746;DHT22;6437;53.686;10.030;2022-07-29T15:30:15;23.90;99.90
12746;DHT22;6437;53.686;10.030;2022-07-29T15:33:17;23.80;99.90
12746;DHT22;6437;53.686;10.030;2022-07-29T15:36:19;23.70;99.90
12746;DHT22;6437;53.686;10.030;2022-07-29T15:39:22;23.70;99.90
12746;DHT22;6437;53.686;10.030;2022-07-29T15:42:24;23.60;99.90
12746;DHT22;6437;53.686;10.030;2022-07-29T15:45:25;23.50;99.90
12746;DHT22;6437;53.686;10.030;2022-07-29T15:48:27;23.50;99.90
12746;DHT22;6437;53.686;10.030;2022-07-29T15:51:29;23.40;99.90
12746;DHT22;6437;53.686;10.030;2022-07-29T15:54:33;23.40;99.90
12746;DHT22;6437;53.686;10.030;2022-07-29T15:57:35;23.30;99.90
12746;DHT22;6437;53.686;10.030;2022-07-29T16:00:36;23.30;99.90
12746;DHT22;6437;53.686;10.030;2022-07-29T16:03:38;23.30;99.90
12746;DHT22;6437;53.686;10.030;2022-07-29T16:06:40;23.20;99.90
12746;DHT22;6437;53.686;10.030;2022-07-29T16:09:43;23.10;99.90
12746;DHT22;6437;53.686;10.030;2022-07-29T16:12:45;23.00;99.90
12746;DHT22;6437;53.686;10.030;2022-07-29T16:15:46;23.00;99.90
12746;DHT22;6437;53.686;10.030;2022-07-29T16:18:48;22.90;99.90
12746;DHT22;6437;53.686;10.030;2022-07-29T16:21:50;22.80;99.90
12746;DHT22;6437;53.686;10.030;2022-07-29T16:24:53;22.80;99.90
12746;DHT22;6437;53.686;10.030;2022-07-29T16:27:54;22.80;99.90
12746;DHT22;6437;53.686;10.030;2022-07-29T16:30:56;22.70;99.90
12746;DHT22;6437;53.686;10.030;2022-07-29T16:33:58;22.70;99.90
12746;DHT22;6437;53.686;10.030;2022-07-29T16:37:00;22.70;99.90
12746;DHT22;6437;53.686;10.030;2022-07-29T16:40:04;22.70;99.90
12746;DHT22;6437;53.686;10.030;2022-07-29T16:43:06;22.60;99.90
12746;DHT22;6437;53.686;10.030;2022-07-29T16:46:08;22.60;99.90
12746;DHT22;6437;53.686;10.030;2022-07-29T16:49:10;22.60;99.90
12746;DHT22;6437;53.686;10.030;2022-07-29T16:52:12;22.60;99.90
12746;DHT22;6437;53.686;10.030;2022-07-29T16:55:15;22.60;99.90
12746;DHT22;6437;53.686;10.030;2022-07-29T16:58:16;22.50;99.90
12746;DHT22;6437;53.686;10.030;2022-07-29T17:01:18;22.50;99.90
12746;DHT22;6437;53.686;10.030;2022-07-29T17:04:20;22.50;99.90
12746;DHT22;6437;53.686;10.030;2022-07-29T17:07:21;22.50;99.90
12746;DHT22;6437;53.686;10.030;2022-07-29T17:10:24;22.40;99.90
12746;DHT22;6437;53.686;10.030;2022-07-29T17:13:26;22.40;99.90
12746;DHT22;6437;53.686;10.030;2022-07-29T17:16:27;22.40;99.90
12746;DHT22;6437;53.686;10.030;2022-07-29T17:19:30;22.30;99.90
12746;DHT22;6437;53.686;10.030;2022-07-29T17:22:32;22.30;99.90
12746;DHT22;6437;53.686;10.030;2022-07-29T17:25:35;22.20;99.90
12746;DHT22;6437;53.686;10.030;2022-07-29T17:28:36;22.20;99.90
12746;DHT22;6437;53.686;10.030;2022-07-29T17:31:38;22.10;99.90
12746;DHT22;6437;53.686;10.030;2022-07-29T17:34:40;22.10;99.90
12746;DHT22;6437;53.686;10.030;2022-07-29T17:37:42;22.10;99.90
12746;DHT22;6437;53.686;10.030;2022-07-29T17:40:45;22.20;99.90
12746;DHT22;6437;53.686;10.030;2022-07-29T17:43:46;22.00;99.90
12746;DHT22;6437;53.686;10.030;2022-07-29T17:46:48;22.00;99.90
12746;DHT22;6437;53.686;10.030;2022-07-29T17:49:50;21.90;99.90
12746;DHT22;6437;53.686;10.030;2022-07-29T17:52:52;21.90;99.90
12746;DHT22;6437;53.686;10.030;2022-07-29T17:55:54;21.80;99.90
12746;DHT22;6437;53.686;10.030;2022-07-29T17:58:57;21.80;99.90
12746;DHT22;6437;53.686;10.030;2022-07-29T18:02:00;21.80;99.90
12746;DHT22;6437;53.686;10.030;2022-07-29T18:05:02;21.70;99.90
12746;DHT22;6437;53.686;10.030;2022-07-29T18:08:05;21.60;99.90
12746;DHT22;6437;53.686;10.030;2022-07-29T18:11:08;21.60;99.90
12746;DHT22;6437;53.686;10.030;2022-07-29T18:14:11;21.60;99.90
12746;DHT22;6437;53.686;10.030;2022-07-29T18:17:12;21.50;99.90
12746;DHT22;6437;53.686;10.030;2022-07-29T18:20:14;21.50;99.90
12746;DHT22;6437;53.686;10.030;2022-07-29T18:23:16;21.50;99.90
12746;DHT22;6437;53.686;10.030;2022-07-29T18:26:19;21.50;99.90
12746;DHT22;6437;53.686;10.030;2022-07-29T18:29:20;21.50;99.90
12746;DHT22;6437;53.686;10.030;2022-07-29T18:32:22;21.40;99.90
12746;DHT22;6437;53.686;10.030;2022-07-29T18:35:24;21.30;99.90
12746;DHT22;6437;53.686;10.030;2022-07-29T18:38:25;21.30;99.90
12746;DHT22;6437;53.686;10.030;2022-07-29T18:41:28;21.20;99.90
12746;DHT22;6437;53.686;10.030;2022-07-29T18:44:30;21.20;99.90
12746;DHT22;6437;53.686;10.030;2022-07-29T18:47:32;21.20;99.90
12746;DHT22;6437;53.686;10.030;2022-07-29T18:50:34;21.20;99.90
12746;DHT22;6437;53.686;10.030;2022-07-29T18:53:35;21.20;99.90
12746;DHT22;6437;53.686;10.030;2022-07-29T18:56:38;21.10;99.90
12746;DHT22;6437;53.686;10.030;2022-07-29T18:59:40;21.10;99.90
12746;DHT22;6437;53.686;10.030;2022-07-29T19:02:42;21.10;99.90
12746;DHT22;6437;53.686;10.030;2022-07-29T19:05:44;21.10;99.90
12746;DHT22;6437;53.686;10.030;2022-07-29T19:08:45;21.00;99.90
12746;DHT22;6437;53.686;10.030;2022-07-29T19:11:48;21.00;99.90
12746;DHT22;6437;53.686;10.030;2022-07-29T19:14:50;20.90;99.90
12746;DHT22;6437;53.686;10.030;2022-07-29T19:17:52;20.90;99.90
12746;DHT22;6437;53.686;10.030;2022-07-29T19:20:54;20.90;99.90
12746;DHT22;6437;53.686;10.030;2022-07-29T19:23:55;20.80;99.90
12746;DHT22;6437;53.686;10.030;2022-07-29T19:26:58;20.80;99.90
12746;DHT22;6437;53.686;10.030;2022-07-29T19:30:00;20.70;99.90
12746;DHT22;6437;53.686;10.030;2022-07-29T19:33:02;20.50;99.90
12746;DHT22;6437;53.686;10.030;2022-07-29T19:36:04;20.60;99.90